createdAt,value
2022-12-18T00:00:20.336Z,19.76
2022-12-18T00:02:48.802Z,19.75
2022-12-18T00:05:17.322Z,19.77
2022-12-18T00:07:45.677Z,19.74
2022-12-18T00:10:15.323Z,19.75
2022-12-18T00:12:43.995Z,19.75
2022-12-18T00:15:12.702Z,19.75
2022-12-18T00:17:42.540Z,19.74
2022-12-18T00:20:11.802Z,19.74
2022-12-18T00:22:40.165Z,19.74
2022-12-18T00:25:09.443Z,19.72
2022-12-18T00:27:37.853Z,19.72
2022-12-18T00:30:07.371Z,19.70
2022-12-18T00:32:35.806Z,19.70
2022-12-18T00:35:06.656Z,19.71
2022-12-18T00:37:35.616Z,19.71
2022-12-18T00:40:04.609Z,19.70
2022-12-18T00:42:50.811Z,19.69
2022-12-18T00:45:19.280Z,19.69
2022-12-18T00:47:48.587Z,19.69
2022-12-18T00:50:18.633Z,19.69
2022-12-18T00:52:47.148Z,19.69
2022-12-18T00:55:16.278Z,19.66
2022-12-18T00:57:44.969Z,19.67
2022-12-18T01:00:16.553Z,19.65
2022-12-18T01:02:45.090Z,19.66
2022-12-18T01:05:15.131Z,19.64
2022-12-18T01:07:45.319Z,19.65
2022-12-18T01:10:15.134Z,19.65
2022-12-18T01:12:43.608Z,19.65
2022-12-18T01:15:14.676Z,19.64
2022-12-18T01:17:43.598Z,19.64
2022-12-18T01:20:13.532Z,19.63
2022-12-18T01:22:42.125Z,19.63
2022-12-18T01:25:12.232Z,19.63
2022-12-18T01:27:40.700Z,19.62
2022-12-18T01:30:10.166Z,19.63
2022-12-18T01:32:38.577Z,19.62
2022-12-18T01:35:08.235Z,19.61
2022-12-18T01:37:36.700Z,19.60
2022-12-18T01:40:06.016Z,19.61
2022-12-18T01:42:35.810Z,19.60
2022-12-18T01:45:24.075Z,19.61
2022-12-18T01:47:55.339Z,19.60
2022-12-18T01:50:26.635Z,19.59
2022-12-18T01:52:58.842Z,19.59
2022-12-18T01:55:30.014Z,19.60
2022-12-18T01:58:01.553Z,19.58
2022-12-18T02:00:30.145Z,19.58
2022-12-18T02:03:00.595Z,19.57
2022-12-18T02:05:42.107Z,19.57
2022-12-18T02:08:16.101Z,19.57
2022-12-18T02:10:52.571Z,19.57
2022-12-18T02:13:34.873Z,19.58
2022-12-18T02:16:10.745Z,19.56
2022-12-18T02:18:47.223Z,19.56
2022-12-18T02:21:27.846Z,19.56
2022-12-18T02:24:08.308Z,19.55
2022-12-18T02:26:45.331Z,19.54
2022-12-18T02:29:18.742Z,19.54
2022-12-18T02:31:52.686Z,19.54
2022-12-18T02:34:26.120Z,19.53
2022-12-18T02:36:57.595Z,19.52
2022-12-18T02:39:28.842Z,19.53
2022-12-18T02:42:08.816Z,19.53
2022-12-18T02:44:43.395Z,19.53
2022-12-18T02:47:13.604Z,19.52
2022-12-18T02:49:51.074Z,19.52
2022-12-18T02:52:33.975Z,19.52
2022-12-18T02:55:16.598Z,19.52
2022-12-18T02:57:55.942Z,19.51
2022-12-18T03:00:33.088Z,19.52
2022-12-18T03:03:07.646Z,19.51
2022-12-18T03:05:40.979Z,19.51
2022-12-18T03:08:14.864Z,19.50
2022-12-18T03:10:51.955Z,19.51
2022-12-18T03:13:30.814Z,19.50
2022-12-18T03:16:02.592Z,19.50
2022-12-18T03:18:35.557Z,19.49
2022-12-18T03:21:07.930Z,19.49
2022-12-18T03:23:42.512Z,19.49
2022-12-18T03:26:17.333Z,19.49
2022-12-18T03:28:54.240Z,19.48
2022-12-18T03:31:25.513Z,19.49
2022-12-18T03:33:56.728Z,19.47
2022-12-18T03:36:35.143Z,19.48
2022-12-18T03:39:04.179Z,19.47
2022-12-18T03:41:43.295Z,19.48
2022-12-18T03:44:30.752Z,19.47
2022-12-18T03:47:07.365Z,19.46
2022-12-18T03:49:41.052Z,19.46
2022-12-18T03:52:14.996Z,19.46
2022-12-18T03:54:45.414Z,19.46
2022-12-18T03:57:20.589Z,19.46
2022-12-18T03:59:57.118Z,19.45
2022-12-18T04:02:30.932Z,19.45
2022-12-18T04:05:04.705Z,19.44
2022-12-18T04:07:34.202Z,19.44
2022-12-18T04:10:04.378Z,19.44
2022-12-18T04:12:33.950Z,19.43
2022-12-18T04:15:04.540Z,19.44
2022-12-18T04:17:33.006Z,19.44
2022-12-18T04:20:01.498Z,19.43
2022-12-18T04:22:30.031Z,19.43
2022-12-18T04:25:01.313Z,19.42
2022-12-18T04:27:37.330Z,19.42
2022-12-18T04:30:09.766Z,19.42
2022-12-18T04:32:38.345Z,19.42
2022-12-18T04:35:11.378Z,19.42
2022-12-18T04:37:40.812Z,19.41
2022-12-18T04:40:10.801Z,19.42
2022-12-18T04:42:43.715Z,19.41
2022-12-18T04:45:13.591Z,19.42
2022-12-18T04:47:42.006Z,19.40
2022-12-18T04:50:10.578Z,19.40
2022-12-18T04:52:39.086Z,19.41
2022-12-18T04:55:07.863Z,19.39
2022-12-18T04:57:36.348Z,19.39
2022-12-18T05:00:06.939Z,19.40
2022-12-18T05:02:36.928Z,19.39
2022-12-18T05:05:06.268Z,19.40
2022-12-18T05:07:34.727Z,19.40
2022-12-18T05:10:03.167Z,19.40
2022-12-18T05:12:33.522Z,19.39
2022-12-18T05:15:01.960Z,19.38
2022-12-18T05:17:30.372Z,19.38
2022-12-18T05:20:00.072Z,19.37
2022-12-18T05:22:28.488Z,19.38
2022-12-18T05:24:57.049Z,19.37
2022-12-18T05:27:25.457Z,19.37
2022-12-18T05:29:53.852Z,19.37
2022-12-18T05:32:22.272Z,19.38
2022-12-18T05:34:50.664Z,19.37
2022-12-18T05:37:20.410Z,19.37
2022-12-18T05:39:48.834Z,19.36
2022-12-18T05:42:17.224Z,19.36
2022-12-18T05:44:45.751Z,19.36
2022-12-18T05:47:14.130Z,19.37
2022-12-18T05:49:42.590Z,19.36
2022-12-18T05:52:11.199Z,19.39
2022-12-18T05:54:41.111Z,19.40
2022-12-18T05:57:09.511Z,19.42
2022-12-18T05:59:37.974Z,19.44
2022-12-18T06:02:06.453Z,19.46
2022-12-18T06:04:34.922Z,19.50
2022-12-18T06:07:06.086Z,19.52
2022-12-18T06:09:34.584Z,19.53
2022-12-18T06:12:04.607Z,19.56
2022-12-18T06:14:33.039Z,19.57
2022-12-18T06:17:01.494Z,19.59
2022-12-18T06:19:29.946Z,19.63
2022-12-18T06:21:59.807Z,19.66
2022-12-18T06:24:28.354Z,19.70
2022-12-18T06:26:56.928Z,19.75
2022-12-18T06:29:26.838Z,19.83
2022-12-18T06:31:55.372Z,19.85
2022-12-18T06:34:23.877Z,19.90
2022-12-18T06:36:52.503Z,19.93
2022-12-18T06:39:20.962Z,19.98
2022-12-18T06:41:49.438Z,20.01
2022-12-18T06:44:18.104Z,20.06
2022-12-18T06:46:48.077Z,20.10
2022-12-18T06:49:16.895Z,20.13
2022-12-18T06:51:45.386Z,20.16
2022-12-18T06:54:14.634Z,20.19
2022-12-18T06:56:43.181Z,20.21
2022-12-18T06:59:11.660Z,20.24
2022-12-18T07:01:40.276Z,20.25
2022-12-18T07:04:10.254Z,20.27
2022-12-18T07:06:38.689Z,20.30
2022-12-18T07:09:07.136Z,20.32
2022-12-18T07:11:35.939Z,20.34
2022-12-18T07:14:04.467Z,20.36
2022-12-18T07:16:33.123Z,20.39
2022-12-18T07:19:01.557Z,20.41
2022-12-18T07:21:31.388Z,20.42
2022-12-18T07:24:00.112Z,20.45
2022-12-18T07:26:28.649Z,20.45
2022-12-18T07:28:58.415Z,20.45
2022-12-18T07:31:27.852Z,20.47
2022-12-18T07:33:57.246Z,20.47
2022-12-18T07:36:26.172Z,20.48
2022-12-18T07:38:55.929Z,20.49
2022-12-18T07:41:24.356Z,20.50
2022-12-18T07:43:52.749Z,20.52
2022-12-18T07:46:21.160Z,20.52
2022-12-18T07:48:50.430Z,20.53
2022-12-18T07:51:20.044Z,20.54
2022-12-18T07:53:52.325Z,20.54
2022-12-18T07:56:31.417Z,20.55
2022-12-18T07:59:00.857Z,20.56
2022-12-18T08:01:32.346Z,20.57
2022-12-18T08:04:00.817Z,20.57
2022-12-18T08:06:29.305Z,20.57
2022-12-18T08:08:58.209Z,20.59
2022-12-18T08:11:29.787Z,20.58
2022-12-18T08:13:59.433Z,20.59
2022-12-18T08:16:28.966Z,20.60
2022-12-18T08:18:57.860Z,20.61
2022-12-18T08:21:28.153Z,20.61
2022-12-18T08:23:58.025Z,20.63
2022-12-18T08:26:30.029Z,20.62
2022-12-18T08:28:59.845Z,20.62
2022-12-18T08:31:30.274Z,20.59
2022-12-18T08:33:59.700Z,20.58
2022-12-18T08:36:28.362Z,20.55
2022-12-18T08:38:56.848Z,20.56
2022-12-18T08:41:25.326Z,20.58
2022-12-18T08:44:12.748Z,20.60
2022-12-18T08:46:43.666Z,20.62
2022-12-18T08:49:13.089Z,20.64
2022-12-18T08:51:41.902Z,20.65
2022-12-18T08:54:13.428Z,20.65
2022-12-18T08:56:41.847Z,20.66
2022-12-18T08:59:18.793Z,20.66
2022-12-18T09:01:48.798Z,20.69
2022-12-18T09:04:17.776Z,20.69
2022-12-18T09:06:46.150Z,20.69
2022-12-18T09:09:14.751Z,20.70
2022-12-18T09:11:43.424Z,20.71
2022-12-18T09:14:13.287Z,20.71
2022-12-18T09:16:41.724Z,20.72
2022-12-18T09:19:11.814Z,20.73
2022-12-18T09:21:46.087Z,20.74
2022-12-18T09:24:17.377Z,18.69
2022-12-18T09:26:47.349Z,14.58
2022-12-18T09:29:19.068Z,12.07
2022-12-18T09:31:47.683Z,11.13
2022-12-18T09:34:16.229Z,9.06
2022-12-18T09:36:44.737Z,8.18
2022-12-18T09:39:13.119Z,10.25
2022-12-18T09:41:46.080Z,12.27
2022-12-18T09:44:26.991Z,13.91
2022-12-18T09:47:15.686Z,15.16
2022-12-18T09:49:47.278Z,16.02
2022-12-18T09:52:21.503Z,16.61
2022-12-18T09:54:55.577Z,17.04
2022-12-18T09:57:26.448Z,17.42
2022-12-18T10:00:00.676Z,17.76
2022-12-18T10:02:32.307Z,18.01
2022-12-18T10:05:11.375Z,18.28
2022-12-18T10:07:51.827Z,18.49
2022-12-18T10:10:33.871Z,18.71
2022-12-18T10:13:11.764Z,18.84
2022-12-18T10:15:50.546Z,18.98
2022-12-18T10:18:27.798Z,19.11
2022-12-18T10:21:02.036Z,19.23
2022-12-18T10:23:44.947Z,19.33
2022-12-18T10:26:16.484Z,19.42
2022-12-18T10:28:46.064Z,19.51
2022-12-18T10:31:18.928Z,19.59
2022-12-18T10:33:47.656Z,19.67
2022-12-18T10:36:16.232Z,19.73
2022-12-18T10:38:44.997Z,19.80
2022-12-18T10:41:27.760Z,19.84
2022-12-18T10:44:18.499Z,19.91
2022-12-18T10:46:51.090Z,19.94
2022-12-18T10:49:25.511Z,20.00
2022-12-18T10:52:07.311Z,20.05
2022-12-18T10:54:36.980Z,20.07
2022-12-18T10:57:19.208Z,20.10
2022-12-18T10:59:54.250Z,20.13
2022-12-18T11:02:36.793Z,20.16
2022-12-18T11:05:25.134Z,20.17
2022-12-18T11:07:55.732Z,20.18
2022-12-18T11:10:28.027Z,20.19
2022-12-18T11:13:10.790Z,20.21
2022-12-18T11:15:42.399Z,20.22
2022-12-18T11:18:21.554Z,20.23
2022-12-18T11:20:58.512Z,20.24
2022-12-18T11:23:28.417Z,20.22
2022-12-18T11:25:59.634Z,20.24
2022-12-18T11:28:31.377Z,20.23
2022-12-18T11:31:18.349Z,20.19
2022-12-18T11:34:26.784Z,20.20
2022-12-18T11:36:46.545Z,20.17
2022-12-18T11:39:21.083Z,20.15
2022-12-18T11:42:11.618Z,20.14
2022-12-18T11:44:48.635Z,20.13
2022-12-18T11:47:24.155Z,20.11
2022-12-18T11:49:55.327Z,20.10
2022-12-18T11:52:28.453Z,20.06
2022-12-18T11:55:00.720Z,20.04
2022-12-18T11:57:39.011Z,20.00
2022-12-18T12:00:15.894Z,19.95
2022-12-18T12:03:11.811Z,19.92
2022-12-18T12:05:50.972Z,19.89
2022-12-18T12:08:26.307Z,19.84
2022-12-18T12:11:05.112Z,19.83
2022-12-18T12:13:48.137Z,19.81
2022-12-18T12:16:23.662Z,19.76
2022-12-18T12:19:05.793Z,19.74
2022-12-18T12:21:41.256Z,19.71
2022-12-18T12:24:28.837Z,19.70
2022-12-18T12:27:10.395Z,19.69
2022-12-18T12:29:52.731Z,19.68
2022-12-18T12:32:35.022Z,19.66
2022-12-18T12:35:20.682Z,19.64
2022-12-18T12:38:04.614Z,19.62
2022-12-18T12:40:58.806Z,19.61
2022-12-18T12:43:34.310Z,19.59
2022-12-18T12:46:07.509Z,19.56
2022-12-18T12:48:43.053Z,19.56
2022-12-18T12:51:18.417Z,19.54
2022-12-18T12:53:49.762Z,19.54
2022-12-18T12:56:22.127Z,19.51
2022-12-18T12:59:01.045Z,19.49
2022-12-18T13:01:40.896Z,19.49
2022-12-18T13:04:22.471Z,19.47
2022-12-18T13:07:01.626Z,19.45
2022-12-18T13:09:36.662Z,19.45
2022-12-18T13:12:43.213Z,19.43
2022-12-18T13:15:22.041Z,19.43
2022-12-18T13:17:50.766Z,19.41
2022-12-18T13:20:19.277Z,19.40
2022-12-18T13:22:49.321Z,19.40
2022-12-18T13:25:34.535Z,19.40
2022-12-18T13:28:09.232Z,19.40
2022-12-18T13:30:47.354Z,19.39
2022-12-18T13:36:38.016Z,19.38
2022-12-18T13:39:35.421Z,19.38
2022-12-18T13:43:00.495Z,19.38
2022-12-18T13:45:47.890Z,19.36
2022-12-18T13:48:19.183Z,19.35
2022-12-18T13:50:55.221Z,19.34
2022-12-18T13:53:28.501Z,19.36
2022-12-18T13:55:57.473Z,19.35
2022-12-18T13:58:27.419Z,19.32
2022-12-18T14:00:55.976Z,19.34
2022-12-18T14:03:28.098Z,19.34
2022-12-18T14:06:01.558Z,19.34
2022-12-18T14:08:36.874Z,19.34
2022-12-18T14:11:08.661Z,19.34
2022-12-18T14:13:44.052Z,19.33
2022-12-18T14:16:17.336Z,19.32
2022-12-18T14:18:48.603Z,19.32
2022-12-18T14:21:23.988Z,19.33
2022-12-18T14:24:06.077Z,19.32
2022-12-18T14:26:35.075Z,19.31
2022-12-18T14:29:22.435Z,19.31
2022-12-18T14:32:17.938Z,19.30
2022-12-18T14:34:50.390Z,19.30
2022-12-18T14:37:22.165Z,19.31
2022-12-18T14:39:58.991Z,19.28
2022-12-18T14:42:29.136Z,19.29
2022-12-18T14:45:45.523Z,19.28
2022-12-18T14:48:21.718Z,19.29
2022-12-18T14:51:00.743Z,19.29
2022-12-18T14:53:37.774Z,19.27
2022-12-18T14:56:18.078Z,19.27
2022-12-18T14:58:49.206Z,19.28
2022-12-18T15:01:28.310Z,19.26
2022-12-18T15:03:58.243Z,19.26
2022-12-18T15:06:31.155Z,19.25
2022-12-18T15:09:00.456Z,19.25
2022-12-18T15:11:31.541Z,19.25
2022-12-18T15:14:01.521Z,19.25
2022-12-18T15:16:31.379Z,19.24
2022-12-18T15:18:59.902Z,19.25
2022-12-18T15:21:31.545Z,19.23
2022-12-18T15:24:02.767Z,19.25
2022-12-18T15:26:39.470Z,19.25
2022-12-18T15:29:20.537Z,19.25
2022-12-18T15:32:02.156Z,19.25
2022-12-18T15:34:31.461Z,19.25
2022-12-18T15:36:59.918Z,19.24
2022-12-18T15:39:28.323Z,19.24
2022-12-18T15:42:14.497Z,19.23
2022-12-18T15:44:42.995Z,19.22
2022-12-18T15:47:14.593Z,19.24
2022-12-18T15:49:43.127Z,19.23
2022-12-18T15:52:26.716Z,19.23
2022-12-18T15:55:12.597Z,19.21
2022-12-18T15:57:41.046Z,19.23
2022-12-18T16:00:14.562Z,19.24
2022-12-18T16:02:45.171Z,19.23
2022-12-18T16:05:17.895Z,19.23
2022-12-18T16:07:46.633Z,19.24
2022-12-18T16:10:15.733Z,19.24
2022-12-18T16:12:44.505Z,19.23
2022-12-18T16:15:22.412Z,19.24
2022-12-18T16:17:54.268Z,19.24
2022-12-18T16:20:24.204Z,19.24
2022-12-18T16:22:54.098Z,19.23
2022-12-18T16:25:27.201Z,19.22
2022-12-18T16:27:57.195Z,19.21
2022-12-18T16:30:29.451Z,19.22
2022-12-18T16:33:07.487Z,19.23
2022-12-18T16:35:38.099Z,19.22
2022-12-18T16:38:06.686Z,19.24
2022-12-18T16:40:55.186Z,19.25
2022-12-18T16:43:23.704Z,19.26
2022-12-18T16:45:52.285Z,19.26
2022-12-18T16:48:22.078Z,19.26
2022-12-18T16:50:50.555Z,19.29
2022-12-18T16:53:19.083Z,19.29
2022-12-18T16:55:55.960Z,19.29
2022-12-18T16:58:24.471Z,19.30
2022-12-18T17:00:52.911Z,19.32
2022-12-18T17:03:22.764Z,19.31
2022-12-18T17:05:53.221Z,19.32
2022-12-18T17:08:21.921Z,19.33
2022-12-18T17:10:50.406Z,19.34
2022-12-18T17:13:22.722Z,19.34
2022-12-18T17:15:54.299Z,19.36
2022-12-18T17:18:24.237Z,19.35
2022-12-18T17:20:52.926Z,19.37
2022-12-18T17:23:23.506Z,19.38
2022-12-18T17:25:55.643Z,19.37
2022-12-18T17:28:24.301Z,19.39
2022-12-18T17:30:53.171Z,19.39
2022-12-18T17:33:22.466Z,19.39
2022-12-18T17:35:53.034Z,19.39
2022-12-18T17:38:21.565Z,19.39
2022-12-18T17:40:50.044Z,19.41
2022-12-18T17:43:19.497Z,19.42
2022-12-18T17:45:48.012Z,19.42
2022-12-18T17:48:16.465Z,19.42
2022-12-18T17:50:45.785Z,19.42
2022-12-18T17:53:16.140Z,19.44
2022-12-18T17:55:45.733Z,19.43
2022-12-18T17:58:14.359Z,19.43
2022-12-18T18:00:43.296Z,19.42
2022-12-18T18:03:11.956Z,19.43
2022-12-18T18:05:40.710Z,19.41
2022-12-18T18:08:09.398Z,19.40
2022-12-18T18:10:40.816Z,19.41
2022-12-18T18:13:42.038Z,19.40
2022-12-18T18:16:14.877Z,19.40
2022-12-18T18:18:43.383Z,19.41
2022-12-18T18:21:11.822Z,19.41
2022-12-18T18:23:42.193Z,19.41
2022-12-18T18:26:13.591Z,19.42
2022-12-18T18:28:42.300Z,19.42
2022-12-18T18:31:12.225Z,19.43
2022-12-18T18:33:41.031Z,19.44
2022-12-18T18:36:12.466Z,19.40
2022-12-18T18:38:46.716Z,19.37
2022-12-18T18:41:18.641Z,19.32
2022-12-18T18:43:47.362Z,19.28
2022-12-18T18:46:17.135Z,19.35
2022-12-18T18:48:45.750Z,19.36
2022-12-18T18:51:20.159Z,19.37
2022-12-18T18:53:52.362Z,19.38
2022-12-18T18:59:12.904Z,19.37
2022-12-18T19:01:42.066Z,19.36
2022-12-18T19:04:11.103Z,19.36
2022-12-18T19:06:40.123Z,19.36
2022-12-18T19:09:09.226Z,19.35
2022-12-18T19:11:58.462Z,19.36
2022-12-18T19:14:28.047Z,19.36
2022-12-18T19:16:56.702Z,19.37
2022-12-18T19:19:25.316Z,19.38
2022-12-18T19:21:54.103Z,19.39
2022-12-18T19:24:22.742Z,19.39
2022-12-18T19:26:55.368Z,19.42
2022-12-18T19:29:26.837Z,19.40
2022-12-18T19:31:55.365Z,19.45
2022-12-18T19:34:23.879Z,19.46
2022-12-18T19:36:59.314Z,19.46
2022-12-18T19:39:28.292Z,19.49
2022-12-18T19:41:58.085Z,19.49
2022-12-18T19:44:26.829Z,19.51
2022-12-18T19:46:55.336Z,19.51
2022-12-18T19:49:23.841Z,19.53
2022-12-18T19:51:53.045Z,19.53
2022-12-18T19:54:21.535Z,19.51
2022-12-18T19:56:52.745Z,19.55
2022-12-18T19:59:23.087Z,19.57
2022-12-18T20:01:54.165Z,19.61
2022-12-18T20:04:22.933Z,19.64
2022-12-18T20:06:52.880Z,19.66
2022-12-18T20:09:22.301Z,19.70
2022-12-18T20:11:51.212Z,19.74
2022-12-18T20:14:23.515Z,19.74
2022-12-18T20:16:53.988Z,19.75
2022-12-18T20:19:23.303Z,19.71
2022-12-18T20:21:51.763Z,19.70
2022-12-18T20:24:20.233Z,19.69
2022-12-18T20:26:48.793Z,19.67
2022-12-18T20:29:18.565Z,19.66
2022-12-18T20:31:47.079Z,19.64
2022-12-18T20:34:16.944Z,19.65
2022-12-18T20:36:45.712Z,19.63
2022-12-18T20:39:15.136Z,19.63
2022-12-18T20:41:44.213Z,19.63
2022-12-18T20:44:23.673Z,19.61
2022-12-18T20:46:54.876Z,19.61
2022-12-18T20:49:25.701Z,19.59
2022-12-18T20:51:56.815Z,19.60
2022-12-18T20:54:27.755Z,19.62
2022-12-18T20:56:57.517Z,19.59
2022-12-18T20:59:26.557Z,19.61
2022-12-18T21:01:55.353Z,19.59
2022-12-18T21:04:25.666Z,19.61
2022-12-18T21:07:00.749Z,19.61
2022-12-18T21:09:37.680Z,19.60
2022-12-18T21:12:29.394Z,19.60
2022-12-18T21:15:05.389Z,19.60
2022-12-18T21:17:34.143Z,19.62
2022-12-18T21:20:11.507Z,19.60
2022-12-18T21:22:46.718Z,19.60
2022-12-18T21:25:15.212Z,19.60
2022-12-18T21:27:43.621Z,19.59
2022-12-18T21:30:13.899Z,19.56
2022-12-18T21:32:42.457Z,19.55
2022-12-18T21:35:12.551Z,19.52
2022-12-18T21:37:41.088Z,19.52
2022-12-18T21:40:10.711Z,19.49
2022-12-18T21:42:56.724Z,19.45
2022-12-18T21:45:25.241Z,19.43
2022-12-18T21:47:53.703Z,19.42
2022-12-18T21:50:23.549Z,19.39
2022-12-18T21:52:52.024Z,19.38
2022-12-18T21:55:20.427Z,19.37
2022-12-18T21:57:48.871Z,19.36
2022-12-18T22:00:19.633Z,19.33
2022-12-18T22:03:17.774Z,19.33
2022-12-18T22:05:39.018Z,19.31
2022-12-18T22:08:07.686Z,19.30
2022-12-18T22:10:36.725Z,19.27
2022-12-18T22:13:05.183Z,19.27
2022-12-18T22:15:34.213Z,19.26
2022-12-18T22:18:02.748Z,19.24
2022-12-18T22:20:31.259Z,19.22
2022-12-18T22:23:04.357Z,19.21
2022-12-18T22:25:35.370Z,19.19
2022-12-18T22:28:24.461Z,19.17
2022-12-18T22:30:59.379Z,19.15
2022-12-18T22:33:29.194Z,19.14
2022-12-18T22:35:57.636Z,19.12
2022-12-18T22:38:27.395Z,19.11
2022-12-18T22:40:56.183Z,19.09
2022-12-18T22:43:24.691Z,19.08
2022-12-18T22:45:53.174Z,19.07
2022-12-18T22:48:21.778Z,19.06
2022-12-18T22:50:50.222Z,19.05
2022-12-18T22:53:21.678Z,19.05
2022-12-18T22:55:51.502Z,19.04
2022-12-18T22:58:19.938Z,19.04
2022-12-18T23:00:48.397Z,19.02
2022-12-18T23:03:16.839Z,19.02
2022-12-18T23:05:45.298Z,19.02
2022-12-18T23:08:13.780Z,19.02
2022-12-18T23:10:42.240Z,19.02
2022-12-18T23:13:11.997Z,19.01
2022-12-18T23:15:42.514Z,19.01
2022-12-18T23:18:11.235Z,19.01
2022-12-18T23:20:39.739Z,19.00
2022-12-18T23:23:08.655Z,19.00
2022-12-18T23:25:37.144Z,19.00
2022-12-18T23:28:06.043Z,18.97
2022-12-18T23:30:36.153Z,18.98
2022-12-18T23:33:04.788Z,18.98
2022-12-18T23:35:33.474Z,18.98
2022-12-18T23:38:01.884Z,18.98
2022-12-18T23:40:30.844Z,18.98
2022-12-18T23:43:00.042Z,18.97
2022-12-18T23:45:28.756Z,18.96
2022-12-18T23:47:58.612Z,18.96
2022-12-18T23:50:29.767Z,18.95
2022-12-18T23:53:03.277Z,18.94
2022-12-18T23:55:39.560Z,18.94
2022-12-18T23:58:09.446Z,18.94
